createdAt,value
2019-05-12T00:00:15.302Z,101466.52
2019-05-12T00:02:48.823Z,101462.14
2019-05-12T00:05:22.209Z,101470.45
2019-05-12T00:07:55.649Z,101471.39
2019-05-12T00:10:29.064Z,101477.86
2019-05-12T00:13:02.575Z,101483.00
2019-05-12T00:15:38.268Z,101478.48
2019-05-12T00:18:11.142Z,101478.45
2019-05-12T00:20:44.526Z,101485.20
2019-05-12T00:23:25.017Z,101486.60
2019-05-12T00:25:53.247Z,101487.02
2019-05-12T00:28:28.417Z,101488.73
2019-05-12T00:31:01.912Z,101489.59
2019-05-12T00:33:35.329Z,101494.24
2019-05-12T00:36:08.744Z,101497.36
2019-05-12T00:38:42.175Z,101498.80
2019-05-12T00:41:18.163Z,101505.59
2019-05-12T00:43:51.104Z,101497.92
2019-05-12T00:46:24.494Z,101509.97
2019-05-12T00:48:58.547Z,101509.56
2019-05-12T00:51:32.114Z,101520.83
2019-05-12T00:54:05.624Z,101522.39
2019-05-12T00:56:39.396Z,101533.25
2019-05-12T00:59:13.083Z,101537.84
2019-05-12T01:01:48.182Z,101542.78
2019-05-12T01:04:21.615Z,101547.59
2019-05-12T01:06:55.035Z,101557.39
2019-05-12T01:09:28.458Z,101558.07
2019-05-12T01:12:01.875Z,101560.56
2019-05-12T01:14:35.297Z,101571.07
2019-05-12T01:17:08.723Z,101565.33
2019-05-12T01:19:42.151Z,101568.91
2019-05-12T01:22:15.575Z,101564.95
2019-05-12T01:24:49.015Z,101572.40
2019-05-12T01:27:22.517Z,101566.50
2019-05-12T01:29:58.062Z,101573.58
2019-05-12T01:32:32.746Z,101577.33
2019-05-12T01:35:08.169Z,101578.91
2019-05-12T01:37:41.554Z,101579.05
2019-05-12T01:40:15.376Z,101583.42
2019-05-12T01:42:48.802Z,101592.46
2019-05-12T01:45:22.310Z,101589.37
2019-05-12T01:47:55.705Z,101599.29
2019-05-12T01:50:29.192Z,101604.75
2019-05-12T01:53:02.614Z,101604.75
2019-05-12T01:55:38.322Z,101606.77
2019-05-12T01:58:11.241Z,101608.90
2019-05-12T02:00:48.100Z,101618.92
2019-05-12T02:03:20.955Z,101622.27
2019-05-12T02:05:59.088Z,101624.09
2019-05-12T02:08:34.166Z,101636.72
2019-05-12T02:11:25.872Z,101641.84
2019-05-12T02:13:59.640Z,101639.14
2019-05-12T02:16:33.081Z,101646.95
2019-05-12T02:19:08.774Z,101644.41
2019-05-12T02:21:41.630Z,101649.66
2019-05-12T02:24:24.295Z,101651.23
2019-05-12T02:26:50.210Z,101662.16
2019-05-12T02:29:23.628Z,101664.77
2019-05-12T02:31:59.033Z,101677.27
2019-05-12T02:34:34.878Z,101677.27
2019-05-12T02:37:07.453Z,101685.60
2019-05-12T02:39:40.847Z,101681.17
2019-05-12T02:42:15.553Z,101686.47
2019-05-12T02:44:49.266Z,101685.63
2019-05-12T02:47:24.091Z,101684.67
2019-05-12T02:49:57.766Z,101687.30
2019-05-12T02:52:31.353Z,101690.29
2019-05-12T02:55:06.635Z,101698.63
2019-05-12T02:57:40.836Z,101704.33
2019-05-12T03:00:15.997Z,101704.22
2019-05-12T03:02:54.602Z,101710.65
2019-05-12T03:05:28.261Z,101717.00
2019-05-12T03:08:04.842Z,101715.56
2019-05-12T03:10:38.627Z,101726.73
2019-05-12T03:13:14.943Z,101734.56
2019-05-12T03:15:47.281Z,101739.55
2019-05-12T03:18:20.701Z,101739.11
2019-05-12T03:20:54.777Z,101746.03
2019-05-12T03:23:28.411Z,101748.38
2019-05-12T03:26:04.968Z,101753.01
2019-05-12T03:28:36.998Z,101756.77
2019-05-12T03:31:10.469Z,101765.64
2019-05-12T03:33:52.058Z,101769.25
2019-05-12T03:36:19.026Z,101768.51
2019-05-12T03:38:55.116Z,101775.60
2019-05-12T03:41:27.577Z,101777.40
2019-05-12T03:44:01.002Z,101782.32
2019-05-12T03:46:35.431Z,101788.67
2019-05-12T03:49:09.029Z,101786.68
2019-05-12T03:51:45.389Z,101787.15
2019-05-12T03:54:17.640Z,101781.64
2019-05-12T03:56:51.187Z,101799.58
2019-05-12T03:59:25.547Z,101800.13
2019-05-12T04:01:59.108Z,101807.46
2019-05-12T04:04:34.754Z,101812.45
2019-05-12T04:07:07.674Z,101812.03
2019-05-12T04:09:41.093Z,101819.81
2019-05-12T04:12:15.003Z,101822.56
2019-05-12T04:14:48.497Z,101823.91
2019-05-12T04:17:24.372Z,101830.03
2019-05-12T04:19:57.028Z,101830.85
2019-05-12T04:22:30.422Z,101836.67
2019-05-12T04:25:06.116Z,101843.89
2019-05-12T04:27:39.905Z,101842.16
2019-05-12T04:30:14.547Z,101854.19
2019-05-12T04:32:48.234Z,101855.00
2019-05-12T04:35:24.855Z,101866.91
2019-05-12T04:37:56.782Z,101875.83
2019-05-12T04:40:30.216Z,101878.27
2019-05-12T04:43:05.766Z,101886.88
2019-05-12T04:45:38.748Z,101888.27
2019-05-12T04:48:15.594Z,101886.45
2019-05-12T04:50:47.354Z,101898.80
2019-05-12T04:53:20.745Z,101901.44
2019-05-12T04:56:07.564Z,101902.59
2019-05-12T04:58:29.315Z,101906.81
2019-05-12T05:01:06.034Z,101908.90
2019-05-12T05:03:37.867Z,101910.44
2019-05-12T05:06:14.540Z,101927.41
2019-05-12T05:08:46.419Z,101934.33
2019-05-12T05:11:19.826Z,101934.02
2019-05-12T05:13:54.776Z,101935.28
2019-05-12T05:16:28.512Z,101941.19
2019-05-12T05:19:03.633Z,101949.09
2019-05-12T05:21:37.155Z,101951.44
2019-05-12T05:24:10.566Z,101960.18
2019-05-12T05:26:44.053Z,101974.47
2019-05-12T05:29:17.458Z,101974.47
2019-05-12T05:31:53.266Z,101974.02
2019-05-12T05:34:25.988Z,101979.79
2019-05-12T05:37:01.484Z,101978.31
2019-05-12T05:39:35.774Z,101982.67
2019-05-12T05:42:09.663Z,101988.99
2019-05-12T05:44:43.505Z,101994.26
2019-05-12T05:47:19.783Z,101992.91
2019-05-12T05:49:54.010Z,101992.93
2019-05-12T05:52:33.090Z,102004.22
2019-05-12T05:55:05.815Z,102008.09
2019-05-12T05:57:37.612Z,102002.48
2019-05-12T06:00:17.333Z,102010.63
2019-05-12T06:02:46.629Z,102011.72
2019-05-12T06:05:25.288Z,102016.58
2019-05-12T06:07:55.172Z,102018.49
2019-05-12T06:10:35.286Z,102015.39
2019-05-12T06:13:04.216Z,102018.40
2019-05-12T06:15:40.629Z,102008.86
2019-05-12T06:18:13.576Z,102018.80
2019-05-12T06:20:47.166Z,102024.03
2019-05-12T06:23:20.580Z,102028.03
2019-05-12T06:25:54.908Z,102032.73
2019-05-12T06:28:31.218Z,102038.55
2019-05-12T06:31:04.248Z,102043.63
2019-05-12T06:33:38.209Z,102044.23
2019-05-12T06:36:14.136Z,102044.70
2019-05-12T06:38:46.762Z,102053.87
2019-05-12T06:41:21.321Z,102059.19
2019-05-12T06:43:55.309Z,102064.98
2019-05-12T06:46:28.736Z,102079.98
2019-05-12T06:49:10.139Z,102067.31
2019-05-12T06:51:37.272Z,102068.91
2019-05-12T06:54:12.686Z,102072.96
2019-05-12T06:56:50.018Z,102078.61
2019-05-12T06:59:23.599Z,102079.80
2019-05-12T07:02:00.355Z,102089.73
2019-05-12T07:04:33.708Z,102096.86
2019-05-12T07:07:06.322Z,102095.77
2019-05-12T07:09:50.070Z,102100.45
2019-05-12T07:12:16.637Z,102107.76
2019-05-12T07:14:55.563Z,102112.91
2019-05-12T07:17:27.369Z,102118.02
2019-05-12T07:20:00.804Z,102120.41
2019-05-12T07:22:43.543Z,102124.54
2019-05-12T07:25:09.383Z,102119.42
2019-05-12T07:27:45.682Z,102125.02
2019-05-12T07:30:31.887Z,102125.47
2019-05-12T07:33:04.890Z,102128.34
2019-05-12T07:35:40.229Z,102125.41
2019-05-12T07:38:21.146Z,102138.09
2019-05-12T07:40:53.569Z,102144.64
2019-05-12T07:43:29.233Z,102147.75
2019-05-12T07:46:07.135Z,102143.54
2019-05-12T07:48:40.319Z,102146.34
2019-05-12T07:51:14.795Z,102141.85
2019-05-12T07:53:55.383Z,102151.97
2019-05-12T07:56:25.961Z,102157.51
2019-05-12T07:58:58.563Z,102154.72
2019-05-12T08:01:35.754Z,102164.45
2019-05-12T08:04:07.134Z,102154.95
2019-05-12T08:06:44.575Z,102171.39
2019-05-12T08:09:15.681Z,102174.45
2019-05-12T08:11:49.122Z,102177.72
2019-05-12T08:14:28.848Z,102185.30
2019-05-12T08:17:01.894Z,102188.30
2019-05-12T08:19:33.775Z,102189.98
2019-05-12T08:22:07.375Z,102187.20
2019-05-12T08:24:43.528Z,102190.03
2019-05-12T08:27:15.917Z,102188.92
2019-05-12T08:29:52.396Z,102194.08
2019-05-12T08:32:27.094Z,102195.50
2019-05-12T08:34:59.554Z,102198.97
2019-05-12T08:37:33.409Z,102205.39
2019-05-12T08:40:07.810Z,102204.62
2019-05-12T08:42:43.680Z,102206.72
2019-05-12T08:45:28.111Z,102208.61
2019-05-12T08:47:51.770Z,102207.93
2019-05-12T08:50:31.503Z,102203.82
2019-05-12T08:53:00.291Z,102215.89
2019-05-12T08:55:35.838Z,102206.63
2019-05-12T08:58:09.110Z,102219.86
2019-05-12T09:00:50.072Z,102211.19
2019-05-12T09:03:20.466Z,102216.38
2019-05-12T09:05:53.782Z,102219.62
2019-05-12T09:08:28.096Z,102217.42
2019-05-12T09:11:03.534Z,102227.64
2019-05-12T09:13:36.713Z,102227.22
2019-05-12T09:16:10.130Z,102226.94
2019-05-12T09:18:43.716Z,102230.92
2019-05-12T09:21:17.142Z,102239.27
2019-05-12T09:23:53.336Z,102231.52
2019-05-12T09:26:28.394Z,102236.69
2019-05-12T09:29:00.833Z,102237.71
2019-05-12T09:31:34.235Z,102236.39
2019-05-12T09:34:11.777Z,102236.59
2019-05-12T09:36:44.213Z,102239.16
2019-05-12T09:39:17.716Z,102237.77
2019-05-12T09:41:54.807Z,102247.92
2019-05-12T09:44:30.301Z,102230.77
2019-05-12T09:47:01.370Z,102246.63
2019-05-12T09:49:39.263Z,102236.42
2019-05-12T09:52:13.849Z,102236.47
2019-05-12T09:54:45.122Z,102245.47
2019-05-12T09:57:18.542Z,102243.44
2019-05-12T09:59:55.557Z,102231.27
2019-05-12T10:02:27.098Z,102231.26
2019-05-12T10:05:00.981Z,102232.39
2019-05-12T10:07:34.655Z,102231.66
2019-05-12T10:10:08.399Z,102244.83
2019-05-12T10:12:46.497Z,102235.05
2019-05-12T10:15:18.786Z,102234.73
2019-05-12T10:17:53.992Z,102242.95
2019-05-12T10:20:29.190Z,102222.14
2019-05-12T10:23:04.434Z,102234.94
2019-05-12T10:25:38.024Z,102240.23
2019-05-12T10:28:13.238Z,102231.38
2019-05-12T10:30:47.301Z,102232.23
2019-05-12T10:33:23.297Z,102232.23
2019-05-12T10:35:59.319Z,102228.75
2019-05-12T10:38:34.222Z,102237.27
2019-05-12T10:41:07.118Z,102230.29
2019-05-12T10:43:40.575Z,102220.66
2019-05-12T10:46:18.299Z,102235.42
2019-05-12T10:48:49.100Z,102235.94
2019-05-12T10:51:23.940Z,102232.84
2019-05-12T10:54:05.805Z,102228.98
2019-05-12T10:56:34.826Z,102229.80
2019-05-12T10:59:07.924Z,102227.57
2019-05-12T11:01:47.127Z,102242.15
2019-05-12T11:04:16.547Z,102236.28
2019-05-12T11:06:50.041Z,102239.46
2019-05-12T11:09:29.492Z,102240.78
2019-05-12T11:11:58.586Z,102250.75
2019-05-12T11:14:34.085Z,102240.41
2019-05-12T11:17:09.569Z,102246.73
2019-05-12T11:19:47.258Z,102246.96
2019-05-12T11:22:18.317Z,102247.44
2019-05-12T11:24:53.523Z,102234.76
2019-05-12T11:27:26.851Z,102248.33
2019-05-12T11:30:00.240Z,102234.68
2019-05-12T11:32:37.735Z,102239.05
2019-05-12T11:35:09.156Z,102233.86
2019-05-12T11:37:42.570Z,102241.30
2019-05-12T11:40:16.156Z,102248.73
2019-05-12T11:42:55.660Z,102241.77
2019-05-12T11:45:24.757Z,102244.39
2019-05-12T11:48:05.024Z,102253.20
2019-05-12T11:50:33.317Z,102248.34
2019-05-12T11:53:06.763Z,102254.07
2019-05-12T11:55:40.152Z,102255.39
2019-05-12T11:58:13.597Z,102256.70
2019-05-12T12:00:53.364Z,102258.91
2019-05-12T12:03:26.558Z,102259.36
2019-05-12T12:05:59.952Z,102250.55
2019-05-12T12:08:37.144Z,102260.21
2019-05-12T12:11:10.562Z,102260.24
2019-05-12T12:13:43.861Z,102255.41
2019-05-12T12:16:17.267Z,102251.88
2019-05-12T12:18:59.533Z,102254.06
2019-05-12T12:21:25.811Z,102251.42
2019-05-12T12:23:59.250Z,102254.53
2019-05-12T12:26:36.556Z,102258.46
2019-05-12T12:29:07.926Z,102250.13
2019-05-12T12:31:51.814Z,102251.42
2019-05-12T12:34:30.190Z,102254.79
2019-05-12T12:37:00.435Z,102243.87
2019-05-12T12:39:33.866Z,102244.33
2019-05-12T12:42:07.263Z,102250.75
2019-05-12T12:44:40.718Z,102250.41
2019-05-12T12:47:14.141Z,102252.94
2019-05-12T12:49:49.072Z,102240.34
2019-05-12T12:52:24.361Z,102246.16
2019-05-12T12:54:59.398Z,102251.30
2019-05-12T12:57:33.541Z,102250.77
2019-05-12T13:00:08.003Z,102250.82
2019-05-12T13:02:47.447Z,102250.58
2019-05-12T13:05:16.546Z,102249.06
2019-05-12T13:07:50.064Z,102246.77
2019-05-12T13:10:24.844Z,102243.06
2019-05-12T13:13:00.995Z,102236.05
2019-05-12T13:15:33.990Z,102243.41
2019-05-12T13:18:09.224Z,102246.81
2019-05-12T13:20:43.644Z,102249.75
2019-05-12T13:23:17.046Z,102236.69
2019-05-12T13:25:51.955Z,102236.69
2019-05-12T13:28:26.072Z,102241.39
2019-05-12T13:31:08.355Z,102252.11
2019-05-12T13:33:34.662Z,102244.55
2019-05-12T13:36:08.115Z,102243.19
2019-05-12T13:38:44.173Z,102236.13
2019-05-12T13:41:19.868Z,102240.32
2019-05-12T13:43:56.165Z,102236.99
2019-05-12T13:46:27.834Z,102230.64
2019-05-12T13:49:03.178Z,102222.34
2019-05-12T13:51:36.383Z,102229.48
2019-05-12T13:54:09.875Z,102230.11
2019-05-12T13:56:44.345Z,102230.11
2019-05-12T13:59:21.126Z,102231.23
2019-05-12T14:01:53.909Z,102229.96
2019-05-12T14:04:29.414Z,102212.77
2019-05-12T14:07:03.906Z,102212.77
2019-05-12T14:09:37.499Z,102215.42
2019-05-12T14:12:10.913Z,102219.03
2019-05-12T14:14:44.475Z,102216.80
2019-05-12T14:17:17.878Z,102217.89
2019-05-12T14:19:53.215Z,102221.44
2019-05-12T14:22:26.594Z,102220.16
2019-05-12T14:25:02.211Z,102214.75
2019-05-12T14:27:35.147Z,102216.21
2019-05-12T14:30:11.498Z,102216.58
2019-05-12T14:32:49.340Z,102211.14
2019-05-12T14:35:19.759Z,102212.44
2019-05-12T14:37:54.183Z,102216.63
2019-05-12T14:40:31.304Z,102216.63
2019-05-12T14:43:03.765Z,102210.08
2019-05-12T14:45:37.273Z,102210.33
2019-05-12T14:48:10.670Z,102205.33
2019-05-12T14:50:44.294Z,102207.20
2019-05-12T14:53:17.767Z,102208.11
2019-05-12T14:55:53.371Z,102205.46
2019-05-12T14:58:26.303Z,102201.66
2019-05-12T15:00:59.716Z,102206.25
2019-05-12T15:03:34.209Z,102204.83
2019-05-12T15:06:07.863Z,102210.97
2019-05-12T15:08:43.475Z,102207.66
2019-05-12T15:11:16.424Z,102213.16
2019-05-12T15:13:49.856Z,102213.22
2019-05-12T15:16:23.795Z,102209.79
2019-05-12T15:18:57.335Z,102214.51
2019-05-12T15:21:31.434Z,102216.05
2019-05-12T15:24:09.219Z,102216.61
2019-05-12T15:26:40.341Z,102216.03
2019-05-12T15:29:19.808Z,102222.60
2019-05-12T15:31:54.119Z,102212.70
2019-05-12T15:34:24.053Z,102211.83
2019-05-12T15:37:00.186Z,102220.22
2019-05-12T15:39:33.591Z,102220.22
2019-05-12T15:42:07.099Z,102207.43
2019-05-12T15:44:40.486Z,102219.84
2019-05-12T15:47:13.927Z,102218.62
2019-05-12T15:49:47.322Z,102218.62
2019-05-12T15:52:20.753Z,102227.02
2019-05-12T15:54:54.171Z,102224.95
2019-05-12T15:57:29.009Z,102225.03
2019-05-12T16:00:04.865Z,102224.01
2019-05-12T16:02:37.980Z,102234.52
2019-05-12T16:05:11.537Z,102234.70
2019-05-12T16:07:47.744Z,102237.64
2019-05-12T16:10:20.404Z,102240.30
2019-05-12T16:12:53.827Z,102242.73
2019-05-12T16:15:27.322Z,102242.73
2019-05-12T16:18:05.687Z,102235.19
2019-05-12T16:20:35.898Z,102234.24
2019-05-12T16:23:09.365Z,102242.36
2019-05-12T16:25:42.774Z,102232.84
2019-05-12T16:28:23.191Z,102239.98
2019-05-12T16:30:53.471Z,102239.82
2019-05-12T16:33:26.544Z,102246.51
2019-05-12T16:36:05.629Z,102256.67
2019-05-12T16:38:35.070Z,102258.02
2019-05-12T16:41:08.495Z,102260.81
2019-05-12T16:43:43.995Z,102264.33
2019-05-12T16:46:17.056Z,102260.00
2019-05-12T16:48:54.546Z,102258.28
2019-05-12T16:51:25.593Z,102267.55
2019-05-12T16:53:59.091Z,102265.78
2019-05-12T16:56:33.912Z,102268.00
2019-05-12T16:59:15.520Z,102266.70
2019-05-12T17:01:43.919Z,102264.54
2019-05-12T17:04:18.055Z,102262.34
2019-05-12T17:06:51.908Z,102254.50
2019-05-12T17:09:25.447Z,102260.78
2019-05-12T17:11:58.886Z,102263.83
2019-05-12T17:14:38.797Z,102267.99
2019-05-12T17:17:10.546Z,102256.36
2019-05-12T17:19:43.372Z,102259.33
2019-05-12T17:22:17.606Z,102250.59
2019-05-12T17:24:53.687Z,102263.56
2019-05-12T17:27:27.400Z,102268.26
2019-05-12T17:30:00.950Z,102274.98
2019-05-12T17:32:34.368Z,102270.97
2019-05-12T17:35:10.175Z,102273.86
2019-05-12T17:37:43.199Z,102278.47
2019-05-12T17:40:20.125Z,102278.99
2019-05-12T17:42:57.817Z,102282.14
2019-05-12T17:45:27.191Z,102290.95
2019-05-12T17:48:05.939Z,102291.81
2019-05-12T17:50:40.397Z,102290.06
2019-05-12T17:53:13.605Z,102291.37
2019-05-12T17:55:51.063Z,102286.99
2019-05-12T17:58:21.278Z,102291.39
2019-05-12T18:00:54.789Z,102294.05
2019-05-12T18:03:28.208Z,102297.15
2019-05-12T18:06:04.120Z,102299.80
2019-05-12T18:08:38.737Z,102308.17
2019-05-12T18:11:15.787Z,102314.73
2019-05-12T18:13:47.324Z,102319.14
2019-05-12T18:16:24.413Z,102325.27
2019-05-12T18:18:55.935Z,102326.59
2019-05-12T18:21:31.131Z,102336.23
2019-05-12T18:24:09.828Z,102339.31
2019-05-12T18:26:40.031Z,102341.92
2019-05-12T18:29:14.671Z,102344.98
2019-05-12T18:31:48.280Z,102341.91
2019-05-12T18:34:21.674Z,102351.55
2019-05-12T18:36:59.533Z,102344.49
2019-05-12T18:39:30.386Z,102346.70
2019-05-12T18:42:03.931Z,102355.47
2019-05-12T18:44:37.320Z,102355.85
2019-05-12T18:47:14.378Z,102361.56
2019-05-12T18:49:47.798Z,102357.98
2019-05-12T18:52:23.597Z,102364.06
2019-05-12T18:54:57.502Z,102360.94
2019-05-12T18:57:33.650Z,102372.33
2019-05-12T19:00:15.672Z,102374.44
2019-05-12T19:02:53.849Z,102379.27
2019-05-12T19:05:32.075Z,102385.42
2019-05-12T19:08:06.290Z,102387.56
2019-05-12T19:10:44.370Z,102391.08
2019-05-12T19:13:16.321Z,102397.27
2019-05-12T19:15:52.835Z,102398.59
2019-05-12T19:18:32.634Z,102406.88
2019-05-12T19:21:04.667Z,102412.56
2019-05-12T19:23:38.619Z,102418.64
2019-05-12T19:26:13.623Z,102418.52
2019-05-12T19:28:52.830Z,102433.31
2019-05-12T19:31:24.803Z,102429.78
2019-05-12T19:34:15.797Z,102436.26
2019-05-12T19:36:35.919Z,102438.42
2019-05-12T19:39:08.334Z,102442.26
2019-05-12T19:41:43.679Z,102443.47
2019-05-12T19:44:19.984Z,102440.03
2019-05-12T19:46:53.984Z,102440.83
2019-05-12T19:49:29.632Z,102446.45
2019-05-12T19:52:03.646Z,102449.02
2019-05-12T19:54:37.471Z,102450.70
2019-05-12T19:57:21.569Z,102451.45
2019-05-12T19:59:55.810Z,102452.69
2019-05-12T20:02:28.224Z,102456.03
2019-05-12T20:05:04.384Z,102451.88
2019-05-12T20:07:36.794Z,102457.37
2019-05-12T20:10:13.882Z,102465.48
2019-05-12T20:12:48.926Z,102460.99
2019-05-12T20:15:23.965Z,102461.33
2019-05-12T20:17:56.655Z,102466.91
2019-05-12T20:20:36.574Z,102469.84
2019-05-12T20:23:05.348Z,102467.53
2019-05-12T20:25:38.794Z,102462.23
2019-05-12T20:28:14.493Z,102468.69
2019-05-12T20:30:54.319Z,102471.22
2019-05-12T20:33:24.014Z,102469.02
2019-05-12T20:35:57.624Z,102473.53
2019-05-12T20:38:34.059Z,102475.45
2019-05-12T20:41:10.863Z,102480.63
2019-05-12T20:43:44.184Z,102482.13
2019-05-12T20:46:21.739Z,102484.54
2019-05-12T20:48:53.831Z,102486.96
2019-05-12T20:51:26.786Z,102490.00
2019-05-12T20:54:05.588Z,102487.87
2019-05-12T20:56:35.403Z,102493.42
2019-05-12T20:59:13.895Z,102489.60
2019-05-12T21:01:44.375Z,102498.24
2019-05-12T21:04:22.214Z,102500.50
2019-05-12T21:06:54.144Z,102499.85
2019-05-12T21:09:27.857Z,102498.59
2019-05-12T21:12:01.281Z,102495.16
2019-05-12T21:14:34.667Z,102490.89
2019-05-12T21:17:09.623Z,102500.59
2019-05-12T21:19:55.762Z,102499.75
2019-05-12T21:22:18.368Z,102506.33
2019-05-12T21:24:53.443Z,102504.35
2019-05-12T21:27:26.968Z,102510.28
2019-05-12T21:30:05.972Z,102504.63
2019-05-12T21:32:35.500Z,102510.39
2019-05-12T21:35:19.260Z,102514.80
2019-05-12T21:37:46.042Z,102503.80
2019-05-12T21:40:24.154Z,102512.98
2019-05-12T21:42:54.410Z,102512.41
2019-05-12T21:45:30.858Z,102513.69
2019-05-12T21:48:03.662Z,102516.84
2019-05-12T21:50:38.312Z,102516.00
2019-05-12T21:53:17.590Z,102519.45
2019-05-12T21:55:46.957Z,102518.83
2019-05-12T21:58:20.383Z,102518.81
2019-05-12T22:01:04.227Z,102521.26
2019-05-12T22:03:33.496Z,102523.44
2019-05-12T22:06:16.736Z,102529.00
2019-05-12T22:08:44.116Z,102523.96
2019-05-12T22:11:17.340Z,102531.08
2019-05-12T22:13:58.223Z,102537.26
2019-05-12T22:16:29.511Z,102536.82
2019-05-12T22:19:03.504Z,102538.05
2019-05-12T22:21:47.559Z,102538.52
2019-05-12T22:24:14.424Z,102537.60
2019-05-12T22:26:46.903Z,102531.34
2019-05-12T22:29:21.361Z,102545.06
2019-05-12T22:31:55.426Z,102548.44
2019-05-12T22:34:37.047Z,102536.96
2019-05-12T22:37:04.077Z,102544.00
2019-05-12T22:39:37.472Z,102546.95
2019-05-12T22:42:11.466Z,102547.58
2019-05-12T22:44:46.043Z,102550.74
2019-05-12T22:47:19.441Z,102551.31
2019-05-12T22:49:56.982Z,102556.91
2019-05-12T22:52:28.062Z,102563.72
2019-05-12T22:55:03.621Z,102559.41
2019-05-12T22:57:40.118Z,102565.80
2019-05-12T23:00:19.129Z,102561.05
2019-05-12T23:02:48.625Z,102566.93
2019-05-12T23:05:24.028Z,102565.27
2019-05-12T23:08:00.076Z,102568.56
2019-05-12T23:10:32.343Z,102564.46
2019-05-12T23:13:05.762Z,102564.08
2019-05-12T23:15:45.257Z,102565.80
2019-05-12T23:18:19.492Z,102569.22
2019-05-12T23:20:49.644Z,102572.77
2019-05-12T23:23:24.388Z,102575.78
2019-05-12T23:26:00.446Z,102574.08
2019-05-12T23:28:33.738Z,102574.73
2019-05-12T23:31:07.504Z,102576.00
2019-05-12T23:33:40.918Z,102578.84
2019-05-12T23:36:17.750Z,102580.31
2019-05-12T23:38:54.474Z,102583.41
2019-05-12T23:41:24.672Z,102585.77
2019-05-12T23:43:58.078Z,102584.54
2019-05-12T23:46:31.491Z,102582.92
2019-05-12T23:49:04.907Z,102582.92
2019-05-12T23:51:38.325Z,102579.64
2019-05-12T23:54:11.725Z,102579.64
2019-05-12T23:56:45.188Z,102574.89
2019-05-12T23:59:18.587Z,102575.79
